createdAt,value
2019-05-05T00:01:08.032Z,2.10
2019-05-05T00:03:50.907Z,2.20
2019-05-05T00:06:20.227Z,2.20
2019-05-05T00:08:49.612Z,2.07
2019-05-05T00:11:32.543Z,2.00
2019-05-05T00:14:15.489Z,2.17
2019-05-05T00:16:49.305Z,2.10
2019-05-05T00:19:29.716Z,2.00
2019-05-05T00:21:49.653Z,2.20
2019-05-05T00:24:18.965Z,5.30
2019-05-05T00:26:48.330Z,2.10
2019-05-05T00:29:17.652Z,2.17
2019-05-05T00:31:46.967Z,2.50
2019-05-05T00:34:16.294Z,2.20
2019-05-05T00:36:45.620Z,2.53
2019-05-05T00:39:15.129Z,1.67
2019-05-05T00:41:44.990Z,2.03
2019-05-05T00:44:15.395Z,2.03
2019-05-05T00:46:46.570Z,1.97
2019-05-05T00:49:15.891Z,1.87
2019-05-05T00:51:45.211Z,2.17
2019-05-05T00:54:14.944Z,2.07
2019-05-05T00:56:45.016Z,2.33
2019-05-05T00:59:16.373Z,2.00
2019-05-05T01:01:56.287Z,2.30
2019-05-05T01:04:44.432Z,2.00
2019-05-05T01:07:14.274Z,2.00
2019-05-05T01:09:45.154Z,1.90
2019-05-05T01:12:15.934Z,1.97
2019-05-05T01:14:46.249Z,1.93
2019-05-05T01:17:15.635Z,1.93
2019-05-05T01:19:46.707Z,2.20
2019-05-05T01:22:16.039Z,2.13
2019-05-05T01:24:45.903Z,2.00
2019-05-05T01:27:15.426Z,1.73
2019-05-05T01:29:45.282Z,1.90
2019-05-05T01:32:16.351Z,2.00
2019-05-05T01:34:46.272Z,2.20
2019-05-05T01:37:35.368Z,2.00
2019-05-05T01:40:08.731Z,2.27
2019-05-05T01:42:38.039Z,2.10
2019-05-05T01:45:07.804Z,1.73
2019-05-05T01:47:37.121Z,2.10
2019-05-05T01:50:17.562Z,2.10
2019-05-05T01:52:38.192Z,1.93
2019-05-05T01:55:07.683Z,2.20
2019-05-05T01:57:37.149Z,2.33
2019-05-05T02:00:07.240Z,2.20
2019-05-05T02:02:36.560Z,2.20
2019-05-05T02:05:06.520Z,2.20
2019-05-05T02:07:36.075Z,2.20
2019-05-05T02:10:07.359Z,2.37
2019-05-05T02:12:36.667Z,2.13
2019-05-05T02:15:07.754Z,2.27
2019-05-05T02:17:37.127Z,2.70
2019-05-05T02:20:06.803Z,2.03
2019-05-05T02:22:36.111Z,2.43
2019-05-05T02:25:06.972Z,2.60
2019-05-05T02:27:36.285Z,2.40
2019-05-05T02:30:10.719Z,2.73
2019-05-05T02:32:41.682Z,2.30
2019-05-05T02:35:15.908Z,2.40
2019-05-05T02:37:45.745Z,2.50
2019-05-05T02:40:17.088Z,2.30
2019-05-05T02:42:47.646Z,2.80
2019-05-05T02:45:29.289Z,2.60
2019-05-05T02:48:05.975Z,2.63
2019-05-05T02:50:57.504Z,2.70
2019-05-05T02:53:26.224Z,2.27
2019-05-05T02:55:59.292Z,2.20
2019-05-05T02:58:30.521Z,2.30
2019-05-05T03:01:04.775Z,2.37
2019-05-05T03:03:37.387Z,2.50
2019-05-05T03:06:06.707Z,2.63
2019-05-05T03:08:39.060Z,2.70
2019-05-05T03:11:09.061Z,2.73
2019-05-05T03:13:41.712Z,2.60
2019-05-05T03:16:19.043Z,3.30
2019-05-05T03:18:49.296Z,2.53
2019-05-05T03:21:20.153Z,3.10
2019-05-05T03:23:50.030Z,2.57
2019-05-05T03:26:19.573Z,2.50
2019-05-05T03:28:54.413Z,3.00
2019-05-05T03:31:26.287Z,3.00
2019-05-05T03:33:56.277Z,2.80
2019-05-05T03:36:26.951Z,2.90
2019-05-05T03:38:56.264Z,2.70
2019-05-05T03:41:38.113Z,2.53
2019-05-05T03:44:09.507Z,3.07
2019-05-05T03:46:38.930Z,2.57
2019-05-05T03:49:08.316Z,3.50
2019-05-05T03:51:38.633Z,2.87
2019-05-05T03:54:08.145Z,2.90
2019-05-05T03:56:38.003Z,3.50
2019-05-05T03:59:07.528Z,2.97
2019-05-05T04:01:39.319Z,3.03
2019-05-05T04:04:24.862Z,3.27
2019-05-05T04:06:55.886Z,3.23
2019-05-05T04:09:26.613Z,3.10
2019-05-05T04:11:56.052Z,2.97
2019-05-05T04:14:25.455Z,2.57
2019-05-05T04:17:03.521Z,3.10
2019-05-05T04:19:46.518Z,2.70
2019-05-05T04:22:15.827Z,3.50
2019-05-05T04:24:45.219Z,3.77
2019-05-05T04:27:14.825Z,3.57
2019-05-05T04:29:44.239Z,3.70
2019-05-05T04:32:14.237Z,3.73
2019-05-05T04:34:44.114Z,4.07
2019-05-05T04:37:14.872Z,4.33
2019-05-05T04:39:44.635Z,4.23
2019-05-05T04:42:14.277Z,3.73
2019-05-05T04:44:44.846Z,4.07
2019-05-05T04:47:34.367Z,3.67
2019-05-05T04:50:19.392Z,4.17
2019-05-05T04:52:50.443Z,3.53
2019-05-05T04:55:19.791Z,4.00
2019-05-05T04:57:49.108Z,3.67
2019-05-05T05:00:18.503Z,3.63
2019-05-05T05:02:53.853Z,3.50
2019-05-05T05:05:40.633Z,3.83
2019-05-05T05:08:09.943Z,3.20
2019-05-05T05:10:39.275Z,3.63
2019-05-05T05:13:08.587Z,3.47
2019-05-05T05:15:38.883Z,3.33
2019-05-05T05:18:14.584Z,3.77
2019-05-05T05:20:44.397Z,3.33
2019-05-05T05:23:14.423Z,3.70
2019-05-05T05:25:43.958Z,3.07
2019-05-05T05:28:14.338Z,2.93
2019-05-05T05:30:44.061Z,3.10
2019-05-05T05:33:14.948Z,2.73
2019-05-05T05:35:44.473Z,2.67
2019-05-05T05:38:14.143Z,3.87
2019-05-05T05:40:45.299Z,2.83
2019-05-05T05:43:16.259Z,2.60
2019-05-05T05:45:50.147Z,2.53
2019-05-05T05:48:36.111Z,3.00
2019-05-05T05:51:10.215Z,4.03
2019-05-05T05:53:39.591Z,2.20
2019-05-05T05:56:08.916Z,2.50
2019-05-05T05:58:38.239Z,2.50
2019-05-05T06:01:07.593Z,2.43
2019-05-05T06:03:36.964Z,2.40
2019-05-05T06:06:06.287Z,3.00
2019-05-05T06:08:35.604Z,2.40
2019-05-05T06:11:04.926Z,2.70
2019-05-05T06:13:34.277Z,2.73
2019-05-05T06:16:04.211Z,2.80
2019-05-05T06:18:34.830Z,1.80
2019-05-05T06:21:04.664Z,2.20
2019-05-05T06:23:34.560Z,2.77
2019-05-05T06:26:06.865Z,2.10
2019-05-05T06:28:35.951Z,2.33
2019-05-05T06:31:05.307Z,2.53
2019-05-05T06:33:34.940Z,2.57
2019-05-05T06:36:04.624Z,2.37
2019-05-05T06:38:34.615Z,2.10
2019-05-05T06:41:08.538Z,2.50
2019-05-05T06:43:40.563Z,3.07
2019-05-05T06:46:14.683Z,2.53
2019-05-05T06:48:44.091Z,2.60
2019-05-05T06:51:14.095Z,2.63
2019-05-05T06:53:43.673Z,2.80
2019-05-05T06:56:14.611Z,2.27
2019-05-05T06:58:44.810Z,3.00
2019-05-05T07:01:14.437Z,2.87
2019-05-05T07:03:44.116Z,2.80
2019-05-05T07:06:14.650Z,3.10
2019-05-05T07:08:44.171Z,3.83
2019-05-05T07:11:14.578Z,3.17
2019-05-05T07:13:44.413Z,3.50
2019-05-05T07:16:14.920Z,3.30
2019-05-05T07:18:44.732Z,3.53
2019-05-05T07:21:14.422Z,3.13
2019-05-05T07:23:44.553Z,3.30
2019-05-05T07:26:14.511Z,3.50
2019-05-05T07:28:45.258Z,3.60
2019-05-05T07:31:14.581Z,3.27
2019-05-05T07:33:43.952Z,3.30
2019-05-05T07:36:34.045Z,3.70
2019-05-05T07:39:05.592Z,2.93
2019-05-05T07:41:35.448Z,3.13
2019-05-05T07:44:04.963Z,3.30
2019-05-05T07:46:34.736Z,3.80
2019-05-05T07:49:05.430Z,2.80
2019-05-05T07:51:34.819Z,3.20
2019-05-05T07:54:04.314Z,3.37
2019-05-05T07:56:34.358Z,3.13
2019-05-05T07:59:04.101Z,2.40
2019-05-05T08:01:34.575Z,2.43
2019-05-05T08:04:04.528Z,2.50
2019-05-05T08:06:34.151Z,2.97
2019-05-05T08:09:05.413Z,2.53
2019-05-05T08:11:34.996Z,3.10
2019-05-05T08:14:04.446Z,2.73
2019-05-05T08:16:35.411Z,3.50
2019-05-05T08:19:13.784Z,3.53
2019-05-05T08:21:43.792Z,3.43
2019-05-05T08:24:20.481Z,3.70
2019-05-05T08:27:00.759Z,3.63
2019-05-05T08:29:34.885Z,3.20
2019-05-05T08:32:07.088Z,3.10
2019-05-05T08:34:36.476Z,3.20
2019-05-05T08:37:05.866Z,3.53
2019-05-05T08:39:35.238Z,2.93
2019-05-05T08:42:04.589Z,3.53
2019-05-05T08:44:34.410Z,3.87
2019-05-05T08:47:04.466Z,3.87
2019-05-05T08:49:34.746Z,4.50
2019-05-05T08:52:05.227Z,3.90
2019-05-05T08:54:34.573Z,4.40
2019-05-05T08:57:04.316Z,4.33
2019-05-05T08:59:33.912Z,4.10
2019-05-05T09:02:04.498Z,5.50
2019-05-05T09:04:35.150Z,4.40
2019-05-05T09:07:05.557Z,4.83
2019-05-05T09:09:35.151Z,5.23
2019-05-05T09:12:04.687Z,5.47
2019-05-05T09:14:34.672Z,4.70
2019-05-05T09:17:04.548Z,4.97
2019-05-05T09:19:34.551Z,4.60
2019-05-05T09:22:06.720Z,4.23
2019-05-05T09:24:39.336Z,3.60
2019-05-05T09:27:14.347Z,4.50
2019-05-05T09:29:44.479Z,4.67
2019-05-05T09:32:14.058Z,4.00
2019-05-05T09:34:43.710Z,4.73
2019-05-05T09:37:14.378Z,4.57
2019-05-05T09:39:43.942Z,4.00
2019-05-05T09:42:14.520Z,3.80
2019-05-05T09:44:44.187Z,3.93
2019-05-05T09:47:13.876Z,4.33
2019-05-05T09:49:44.610Z,4.00
2019-05-05T09:52:14.198Z,5.23
2019-05-05T09:54:44.013Z,4.13
2019-05-05T09:57:14.533Z,3.97
2019-05-05T09:59:44.445Z,5.03
2019-05-05T10:02:14.019Z,4.37
2019-05-05T10:04:44.099Z,4.47
2019-05-05T10:07:13.921Z,5.00
2019-05-05T10:09:44.503Z,4.10
2019-05-05T10:12:13.835Z,4.20
2019-05-05T10:14:44.888Z,4.70
2019-05-05T10:17:14.305Z,4.80
2019-05-05T10:19:44.111Z,4.30
2019-05-05T10:22:14.826Z,4.63
2019-05-05T10:24:55.151Z,4.43
2019-05-05T10:27:23.170Z,3.80
2019-05-05T10:29:54.569Z,4.20
2019-05-05T10:32:24.511Z,4.53
2019-05-05T10:35:04.193Z,4.27
2019-05-05T10:37:34.687Z,4.10
2019-05-05T10:40:06.357Z,4.20
2019-05-05T10:42:50.930Z,4.03
2019-05-05T10:45:24.615Z,3.83
2019-05-05T10:47:54.140Z,3.37
2019-05-05T10:50:24.635Z,3.13
2019-05-05T10:52:54.400Z,3.53
2019-05-05T10:55:24.792Z,4.20
2019-05-05T10:57:54.422Z,3.60
2019-05-05T11:00:35.944Z,3.60
2019-05-05T11:03:05.271Z,4.37
2019-05-05T11:05:34.660Z,4.00
2019-05-05T11:08:05.309Z,4.00
2019-05-05T11:10:35.191Z,4.00
2019-05-05T11:13:05.371Z,3.80
2019-05-05T11:15:34.791Z,3.97
2019-05-05T11:18:04.361Z,3.27
2019-05-05T11:20:34.195Z,3.93
2019-05-05T11:23:04.852Z,3.50
2019-05-05T11:25:34.474Z,3.53
2019-05-05T11:28:05.508Z,3.60
2019-05-05T11:30:44.147Z,3.73
2019-05-05T11:33:34.431Z,4.17
2019-05-05T11:36:18.135Z,4.20
2019-05-05T11:38:47.497Z,4.33
2019-05-05T11:41:16.815Z,4.30
2019-05-05T11:43:46.143Z,4.27
2019-05-05T11:46:15.490Z,3.20
2019-05-05T11:48:44.826Z,3.30
2019-05-05T11:51:15.144Z,3.03
2019-05-05T11:53:44.902Z,4.20
2019-05-05T11:56:14.652Z,3.63
2019-05-05T11:58:44.403Z,4.00
2019-05-05T12:01:14.939Z,5.77
2019-05-05T12:03:44.541Z,3.80
2019-05-05T12:06:15.019Z,3.53
2019-05-05T12:08:45.898Z,3.00
2019-05-05T12:11:15.567Z,3.77
2019-05-05T12:13:46.065Z,3.47
2019-05-05T12:16:17.028Z,4.63
2019-05-05T12:18:46.375Z,3.90
2019-05-05T12:21:15.695Z,3.03
2019-05-05T12:23:45.016Z,3.20
2019-05-05T12:26:25.011Z,3.27
2019-05-05T12:28:59.027Z,3.13
2019-05-05T12:31:30.060Z,3.37
2019-05-05T12:33:59.409Z,2.70
2019-05-05T12:36:28.759Z,3.37
2019-05-05T12:38:58.080Z,2.67
2019-05-05T12:41:27.416Z,3.70
2019-05-05T12:43:56.876Z,3.60
2019-05-05T12:46:33.995Z,2.97
2019-05-05T12:49:04.974Z,2.90
2019-05-05T12:51:34.439Z,3.07
2019-05-05T12:54:04.614Z,3.80
2019-05-05T12:56:34.978Z,3.03
2019-05-05T12:59:06.284Z,3.07
2019-05-05T13:01:37.258Z,3.33
2019-05-05T13:04:06.566Z,3.23
2019-05-05T13:06:35.908Z,3.70
2019-05-05T13:09:07.557Z,3.63
2019-05-05T13:11:36.917Z,3.80
2019-05-05T13:14:06.471Z,3.40
2019-05-05T13:16:35.830Z,3.90
2019-05-05T13:19:07.040Z,3.37
2019-05-05T13:21:46.751Z,3.40
2019-05-05T13:24:17.714Z,3.20
2019-05-05T13:26:49.679Z,3.33
2019-05-05T13:29:18.991Z,3.67
2019-05-05T13:31:48.343Z,3.50
2019-05-05T13:34:17.747Z,3.70
2019-05-05T13:36:47.072Z,3.10
2019-05-05T13:39:16.386Z,3.30
2019-05-05T13:41:45.736Z,4.10
2019-05-05T13:44:16.699Z,3.90
2019-05-05T13:46:46.047Z,3.33
2019-05-05T13:49:17.099Z,2.90
2019-05-05T13:51:46.594Z,3.53
2019-05-05T13:54:16.990Z,4.30
2019-05-05T13:56:46.317Z,4.53
2019-05-05T13:59:15.646Z,4.13
2019-05-05T14:01:44.987Z,4.57
2019-05-05T14:04:15.392Z,3.53
2019-05-05T14:06:46.565Z,4.50
2019-05-05T14:09:16.729Z,4.87
2019-05-05T14:11:46.133Z,4.70
2019-05-05T14:14:16.923Z,4.67
2019-05-05T14:16:46.272Z,4.70
2019-05-05T14:19:16.731Z,4.33
2019-05-05T14:21:46.055Z,4.07
2019-05-05T14:24:17.020Z,4.47
2019-05-05T14:26:46.379Z,4.90
2019-05-05T14:29:20.027Z,4.70
2019-05-05T14:31:52.142Z,4.40
2019-05-05T14:34:28.019Z,3.57
2019-05-05T14:37:15.432Z,3.73
2019-05-05T14:39:44.751Z,3.60
2019-05-05T14:42:15.164Z,4.07
2019-05-05T14:44:44.490Z,4.80
2019-05-05T14:47:13.910Z,4.53
2019-05-05T14:49:44.421Z,3.93
2019-05-05T14:52:13.840Z,4.20
2019-05-05T14:54:43.484Z,3.97
2019-05-05T14:57:13.905Z,4.37
2019-05-05T14:59:43.380Z,4.50
2019-05-05T15:02:14.473Z,5.50
2019-05-05T15:04:44.353Z,4.07
2019-05-05T15:07:15.315Z,4.73
2019-05-05T15:09:51.991Z,4.73
2019-05-05T15:12:23.710Z,4.50
2019-05-05T15:14:54.711Z,4.37
2019-05-05T15:17:24.609Z,5.10
2019-05-05T15:19:54.228Z,4.10
2019-05-05T15:22:24.034Z,5.10
2019-05-05T15:24:53.700Z,4.17
2019-05-05T15:27:24.175Z,4.47
2019-05-05T15:29:54.278Z,4.50
2019-05-05T15:32:24.206Z,5.10
2019-05-05T15:34:54.542Z,4.83
2019-05-05T15:37:24.203Z,4.70
2019-05-05T15:39:53.730Z,4.07
2019-05-05T15:42:23.172Z,3.80
2019-05-05T15:44:54.290Z,4.33
2019-05-05T15:47:25.181Z,5.20
2019-05-05T15:49:54.511Z,3.90
2019-05-05T15:52:24.327Z,3.73
2019-05-05T15:54:54.062Z,3.37
2019-05-05T15:57:24.109Z,3.10
2019-05-05T15:59:54.329Z,2.83
2019-05-05T16:02:24.104Z,2.73
2019-05-05T16:04:54.068Z,2.33
2019-05-05T16:07:24.269Z,2.83
2019-05-05T16:09:53.888Z,2.87
2019-05-05T16:12:33.569Z,3.33
2019-05-05T16:15:13.758Z,3.27
2019-05-05T16:18:00.063Z,3.33
2019-05-05T16:20:31.055Z,3.17
2019-05-05T16:23:03.551Z,3.20
2019-05-05T16:25:33.068Z,3.57
2019-05-05T16:28:05.386Z,3.33
2019-05-05T16:30:33.843Z,3.10
2019-05-05T16:33:04.181Z,3.53
2019-05-05T16:35:34.284Z,3.37
2019-05-05T16:38:03.799Z,3.37
2019-05-05T16:40:34.771Z,3.23
2019-05-05T16:43:04.708Z,3.30
2019-05-05T16:45:34.142Z,3.33
2019-05-05T16:48:03.915Z,3.90
2019-05-05T16:50:34.094Z,4.00
2019-05-05T16:53:05.639Z,3.17
2019-05-05T16:55:44.835Z,4.13
2019-05-05T16:58:14.082Z,4.93
2019-05-05T17:00:44.174Z,4.30
2019-05-05T17:03:13.837Z,4.53
2019-05-05T17:05:44.045Z,4.50
2019-05-05T17:08:14.179Z,4.10
2019-05-05T17:10:43.658Z,3.93
2019-05-05T17:13:15.395Z,4.37
2019-05-05T17:16:04.084Z,3.43
2019-05-05T17:18:44.785Z,4.67
2019-05-05T17:21:15.983Z,3.60
2019-05-05T17:23:45.300Z,4.27
2019-05-05T17:26:14.634Z,4.47
2019-05-05T17:28:44.423Z,4.80
2019-05-05T17:31:13.796Z,3.90
2019-05-05T17:33:44.182Z,3.90
2019-05-05T17:36:14.049Z,4.10
2019-05-05T17:38:43.803Z,4.33
2019-05-05T17:41:18.110Z,4.37
2019-05-05T17:43:58.031Z,4.60
2019-05-05T17:46:33.620Z,4.10
2019-05-05T17:49:04.786Z,5.00
2019-05-05T17:51:44.959Z,5.17
2019-05-05T17:54:15.910Z,4.90
2019-05-05T17:56:47.277Z,4.10
2019-05-05T17:59:16.683Z,4.53
2019-05-05T18:01:46.396Z,4.73
2019-05-05T18:04:15.788Z,4.40
2019-05-05T18:06:46.824Z,4.13
2019-05-05T18:09:20.711Z,4.83
2019-05-05T18:11:53.472Z,5.50
2019-05-05T18:14:27.315Z,4.67
2019-05-05T18:16:56.738Z,5.07
2019-05-05T18:19:26.132Z,4.80
2019-05-05T18:21:55.549Z,6.27
2019-05-05T18:24:26.013Z,5.27
2019-05-05T18:26:55.806Z,4.57
2019-05-05T18:29:25.192Z,4.27
2019-05-05T18:31:54.524Z,4.90
2019-05-05T18:34:23.994Z,3.90
2019-05-05T18:36:54.500Z,3.60
2019-05-05T18:39:24.731Z,3.63
2019-05-05T18:42:04.256Z,3.27
2019-05-05T18:44:35.051Z,3.43
2019-05-05T18:47:14.788Z,3.87
2019-05-05T18:49:42.627Z,3.87
2019-05-05T18:52:13.878Z,3.73
2019-05-05T18:54:43.746Z,3.07
2019-05-05T18:57:13.435Z,3.33
2019-05-05T18:59:44.760Z,3.40
2019-05-05T19:02:15.548Z,3.43
2019-05-05T19:04:53.727Z,3.40
2019-05-05T19:07:25.097Z,3.73
2019-05-05T19:09:56.946Z,2.90
2019-05-05T19:12:25.815Z,3.00
2019-05-05T19:14:55.268Z,3.13
2019-05-05T19:17:24.651Z,3.50
2019-05-05T19:19:55.743Z,3.30
2019-05-05T19:22:25.051Z,2.80
2019-05-05T19:24:54.833Z,3.00
2019-05-05T19:27:24.437Z,3.27
2019-05-05T19:29:53.774Z,3.10
2019-05-05T19:32:23.245Z,4.00
2019-05-05T19:34:54.298Z,3.20
2019-05-05T19:37:24.029Z,3.50
2019-05-05T19:39:53.608Z,3.63
2019-05-05T19:42:23.991Z,3.60
2019-05-05T19:44:54.571Z,3.30
2019-05-05T19:47:24.595Z,3.60
2019-05-05T19:49:55.700Z,3.17
2019-05-05T19:52:25.075Z,3.63
2019-05-05T19:54:54.781Z,3.20
2019-05-05T19:57:24.395Z,3.47
2019-05-05T19:59:54.301Z,3.50
2019-05-05T20:02:24.920Z,4.53
2019-05-05T20:04:54.550Z,3.80
2019-05-05T20:07:24.842Z,3.37
2019-05-05T20:09:54.495Z,3.33
2019-05-05T20:12:24.838Z,4.53
2019-05-05T20:14:54.546Z,3.73
2019-05-05T20:17:25.499Z,3.77
2019-05-05T20:19:55.195Z,3.70
2019-05-05T20:22:24.663Z,4.07
2019-05-05T20:24:54.309Z,4.20
2019-05-05T20:27:23.833Z,3.97
2019-05-05T20:29:53.831Z,3.93
2019-05-05T20:32:25.176Z,4.33
2019-05-05T20:35:11.392Z,4.27
2019-05-05T20:37:51.524Z,4.30
2019-05-05T20:40:24.393Z,4.37
2019-05-05T20:42:54.304Z,4.40
2019-05-05T20:45:25.568Z,4.10
2019-05-05T20:47:54.947Z,4.40
2019-05-05T20:50:24.765Z,4.53
2019-05-05T20:52:54.422Z,4.67
2019-05-05T20:55:25.850Z,4.80
2019-05-05T20:57:55.028Z,4.50
2019-05-05T21:00:24.435Z,4.83
2019-05-05T21:02:53.936Z,4.83
2019-05-05T21:05:24.137Z,4.17
2019-05-05T21:07:53.775Z,4.03
2019-05-05T21:10:24.141Z,4.63
2019-05-05T21:12:54.373Z,4.37
2019-05-05T21:15:24.703Z,4.80
2019-05-05T21:17:54.403Z,4.87
2019-05-05T21:20:24.215Z,6.93
2019-05-05T21:22:56.331Z,4.47
2019-05-05T21:25:36.300Z,4.77
2019-05-05T21:28:05.637Z,5.53
2019-05-05T21:30:35.134Z,4.70
2019-05-05T21:33:04.654Z,4.80
2019-05-05T21:35:35.121Z,5.37
2019-05-05T21:38:04.960Z,4.87
2019-05-05T21:40:34.748Z,5.00
2019-05-05T21:43:04.952Z,4.67
2019-05-05T21:45:35.579Z,6.10
2019-05-05T21:48:04.910Z,6.37
2019-05-05T21:50:41.624Z,5.57
2019-05-05T21:53:28.821Z,4.80
2019-05-05T21:56:04.325Z,5.53
2019-05-05T21:58:35.371Z,5.93
2019-05-05T22:01:06.763Z,5.40
2019-05-05T22:03:38.031Z,5.10
2019-05-05T22:06:07.420Z,5.33
2019-05-05T22:08:36.764Z,5.33
2019-05-05T22:11:06.468Z,6.60
2019-05-05T22:13:36.630Z,5.17
2019-05-05T22:16:06.094Z,5.20
2019-05-05T22:18:35.415Z,5.47
2019-05-05T22:21:15.279Z,5.30
2019-05-05T22:23:46.248Z,5.33
2019-05-05T22:26:15.564Z,5.53
2019-05-05T22:28:44.896Z,4.97
2019-05-05T22:31:14.320Z,5.10
2019-05-05T22:33:44.727Z,5.70
2019-05-05T22:36:14.253Z,5.80
2019-05-05T22:38:44.583Z,5.43
2019-05-05T22:41:15.897Z,6.50
2019-05-05T22:43:45.068Z,6.20
2019-05-05T22:46:14.391Z,5.67
2019-05-05T22:48:44.107Z,5.10
2019-05-05T22:51:14.425Z,5.17
2019-05-05T22:53:44.202Z,5.60
2019-05-05T22:56:14.767Z,6.00
2019-05-05T22:58:44.228Z,5.30
2019-05-05T23:01:13.753Z,5.67
2019-05-05T23:03:55.142Z,5.80
2019-05-05T23:06:26.004Z,5.37
2019-05-05T23:08:55.562Z,5.57
2019-05-05T23:11:24.899Z,6.20
2019-05-05T23:13:55.962Z,6.40
2019-05-05T23:16:34.110Z,5.27
2019-05-05T23:19:04.243Z,5.40
2019-05-05T23:21:47.294Z,5.40
2019-05-05T23:24:30.223Z,6.13
2019-05-05T23:26:59.616Z,5.77
2019-05-05T23:29:28.939Z,6.43
2019-05-05T23:31:58.284Z,5.53
2019-05-05T23:34:27.663Z,5.17
2019-05-05T23:36:56.999Z,5.87
2019-05-05T23:39:26.351Z,5.60
2019-05-05T23:41:55.656Z,4.93
2019-05-05T23:44:24.967Z,5.63
2019-05-05T23:46:54.324Z,5.70
2019-05-05T23:49:24.226Z,5.33
2019-05-05T23:51:54.184Z,5.07
2019-05-05T23:54:24.645Z,5.63
2019-05-05T23:56:54.307Z,5.83
2019-05-05T23:59:24.122Z,5.53
